Etusivu
METAR-TAF:

METAR-TAF

Lentoasemat :

Trollhättan-Vänersborg, Ruotsi

Leveyspiiri: 58-19N, Pituuspiiri: 012-21E, korkeus merenpinnasta: 41 m

Tämänhetkinen sää

Tämä raportti tehtiin 32 minuuttia sitten, kello 18.20 UTC
Tuuli 4 kn etelästä
Lämpötila 2°C
Kosteus 60%
Ilmanpaine 1023 hPa
Näkyvyys 10 km tai enemmän
ei pilviä alle 1500 m:ssä eikä cumulonimbus-pilviä

METAR: ESGT 191820Z 19004KT CAVOK 02/M05 Q1023

Aika: 19:52 (18:52 UTC)

Sääennuste

Tämä raportti tehtiin 1 tunti ja 22 minuuttia sitten, kello 17.30 UTC
Ennuste voimassa 19. päivästä klo 18 UTC - 19. päivään klo 22 UTC
Tuuli 7 kn lännestä/lounaasta
Näkyvyys 10 km tai enemmän
ei pilviä alle 1500 m:ssä eikä cumulonimbus-pilviä

TAF: ESGT 191730Z 1918/1922 24007KT CAVOK

Säähavainnot ja -ennusteet yli 4000 lentoasemalta (METAR- ja TAF-raportit).

Käytössä olevat sääasemat on merkitty karttaan keltaisilla ja punaisilla pisteillä.

Aseta hiiri pisteen päälle nähdäksesi sääaseman nimen.

Klikkaa sitten nähdäksesi säähavainnot ja -ennusteet.

Kartan vaihtaminen: klikkaa mustalla rastilla varustettuja vihreitä pisteitä, niin voit zoomata sisään; viivalla varustettua vihreää pistettä, niin voit zoomata ulos tai vihreitä nuolia, niin pääset viereisille kartoille.


METAR-TAF: